Time;durP1;ratioP1;P1;durP2;ratioP2;P2;SDS_P1;SDS_P2;PMS_P1;PMS_P2;Temp;Humidity;BMP_temperature;BMP_pressure;BME280_temperature;BME280_humidity;BME280_pressure;Samples;Min_cycle;Max_cycle;Signal;HPM_P1;HPM_P2
2022/09/17 00:00:37;;;;;;;14.13;1.88;;;10.90;99.90;;;;;;5105398;28;20036;-71
2022/09/17 00:03:04;;;;;;;12.48;2.20;;;10.90;99.90;;;;;;5092489;28;20035;-71
2022/09/17 00:05:30;;;;;;;13.70;2.47;;;11.00;99.90;;;;;;5110751;28;20039;-71
2022/09/17 00:07:56;;;;;;;8.45;1.70;;;11.00;99.90;;;;;;5104595;28;20040;-70
2022/09/17 00:10:22;;;;;;;17.77;2.80;;;11.10;99.90;;;;;;5104252;28;20126;-71
2022/09/17 00:12:48;;;;;;;17.48;2.75;;;11.10;99.90;;;;;;5109279;28;20643;-71
2022/09/17 00:15:14;;;;;;;12.68;2.20;;;11.20;99.90;;;;;;5107684;28;20039;-71
2022/09/17 00:17:40;;;;;;;13.93;2.13;;;11.30;99.90;;;;;;5109421;28;20497;-71
2022/09/17 00:20:10;;;;;;;13.30;2.85;;;11.40;99.90;;;;;;5109756;28;20516;-71
2022/09/17 00:22:37;;;;;;;15.80;2.65;;;11.40;99.90;;;;;;5103730;28;20044;-71
2022/09/17 00:25:05;;;;;;;20.65;2.67;;;11.40;99.90;;;;;;5093062;28;20066;-71
2022/09/17 00:27:31;;;;;;;15.02;2.38;;;11.40;99.90;;;;;;5111202;28;20040;-71
2022/09/17 00:29:57;;;;;;;12.32;2.65;;;11.40;99.90;;;;;;5103108;28;20047;-72
2022/09/17 00:32:23;;;;;;;10.75;1.67;;;11.40;99.90;;;;;;5084523;28;20494;-72
2022/09/17 00:34:51;;;;;;;10.95;1.73;;;11.40;99.90;;;;;;5106457;28;20035;-71
2022/09/17 00:37:19;;;;;;;11.45;2.35;;;11.40;99.90;;;;;;5105096;28;20035;-71
2022/09/17 00:39:45;;;;;;;11.45;1.90;;;11.30;99.90;;;;;;5111501;28;20468;-71
2022/09/17 00:42:12;;;;;;;9.60;1.60;;;11.20;99.90;;;;;;5103261;28;20039;-71
2022/09/17 00:44:50;;;;;;;8.70;1.75;;;11.20;99.90;;;;;;5099503;28;20027;-71
2022/09/17 00:47:30;;;;;;;9.60;1.67;;;11.20;99.90;;;;;;5105932;28;20028;-71
2022/09/17 00:50:21;;;;;;;7.57;1.60;;;11.10;99.90;;;;;;5100377;28;20043;-71
2022/09/17 00:52:51;;;;;;;12.90;2.50;;;11.00;99.90;;;;;;5125370;27;20637;-71
2022/09/17 00:55:27;;;;;;;13.65;2.10;;;10.90;99.90;;;;;;5100183;28;20038;-71
2022/09/17 00:57:57;;;;;;;8.60;2.05;;;10.80;99.90;;;;;;5086604;28;20116;-71
2022/09/17 01:00:23;;;;;;;14.15;1.75;;;10.70;99.90;;;;;;5102725;28;20038;-71
2022/09/17 01:02:49;;;;;;;9.40;1.70;;;10.60;99.90;;;;;;5099473;28;20047;-71
2022/09/17 01:05:15;;;;;;;10.05;2.05;;;10.60;99.90;;;;;;5104419;28;20048;-71
2022/09/17 01:07:52;;;;;;;9.57;1.70;;;10.50;99.90;;;;;;5103828;28;20039;-72
2022/09/17 01:10:41;;;;;;;10.88;2.00;;;10.40;99.90;;;;;;5101583;28;20046;-71
2022/09/17 01:13:30;;;;;;;6.00;1.50;;;10.40;99.90;;;;;;5084672;28;20047;-71
2022/09/17 01:16:09;;;;;;;5.85;1.42;;;10.30;99.90;;;;;;5104838;28;20036;-72
2022/09/17 01:18:52;;;;;;;9.93;1.77;;;10.20;99.90;;;;;;5101348;28;20408;-71
2022/09/17 01:21:31;;;;;;;9.57;1.80;;;10.20;99.90;;;;;;5084154;28;20074;-72
2022/09/17 01:24:34;;;;;;;9.90;1.92;;;10.10;99.90;;;;;;5108446;28;20288;-71
2022/09/17 01:27:32;;;;;;;8.80;1.70;;;10.10;99.90;;;;;;5099472;28;20479;-71
2022/09/17 01:30:25;;;;;;;12.65;2.58;;;10.10;99.90;;;;;;5101870;28;20044;-71
2022/09/17 01:33:05;;;;;;;10.13;1.88;;;10.00;99.90;;;;;;5085794;28;20436;-71
2022/09/17 01:35:37;;;;;;;9.57;1.60;;;10.00;99.90;;;;;;5100232;28;20036;-71
2022/09/17 01:38:16;;;;;;;14.00;2.40;;;10.00;99.90;;;;;;5105235;28;20488;-71
2022/09/17 01:41:07;;;;;;;10.63;1.70;;;9.90;99.90;;;;;;5103034;28;20084;-71
2022/09/17 01:43:35;;;;;;;8.95;1.70;;;9.90;99.90;;;;;;5090732;28;20070;-71
2022/09/17 01:46:20;;;;;;;9.02;2.03;;;9.80;99.90;;;;;;5100694;28;20031;-71
2022/09/17 01:48:50;;;;;;;10.23;1.90;;;9.80;99.90;;;;;;5089914;28;20051;-71
2022/09/17 01:51:21;;;;;;;10.55;1.80;;;9.70;99.90;;;;;;5099070;28;20031;-71
2022/09/17 01:53:59;;;;;;;9.55;2.00;;;9.70;99.90;;;;;;5099347;28;20126;-71
2022/09/17 01:56:29;;;;;;;13.70;2.03;;;9.60;99.90;;;;;;5092316;28;20032;-71
2022/09/17 01:59:10;;;;;;;12.43;1.77;;;9.60;99.90;;;;;;5100061;28;20039;-71
2022/09/17 02:01:38;;;;;;;6.25;1.38;;;9.50;99.90;;;;;;5102432;28;20217;-71
2022/09/17 02:04:13;;;;;;;10.57;1.52;;;9.50;99.90;;;;;;5088292;28;20754;-71
2022/09/17 02:06:43;;;;;;;11.70;2.08;;;9.50;99.90;;;;;;5107675;28;20050;-71
2022/09/17 02:09:17;;;;;;;12.98;1.85;;;9.50;99.90;;;;;;5099411;28;20405;-71
2022/09/17 02:11:48;;;;;;;9.98;1.90;;;9.50;99.90;;;;;;5088595;28;20043;-71
2022/09/17 02:14:20;;;;;;;9.98;1.60;;;9.50;99.90;;;;;;5103558;28;20086;-71
2022/09/17 02:16:50;;;;;;;10.38;1.92;;;9.50;99.90;;;;;;5079022;28;20036;-71
2022/09/17 02:19:23;;;;;;;10.52;1.55;;;9.50;99.90;;;;;;5108310;28;20408;-71
2022/09/17 02:22:05;;;;;;;11.73;1.73;;;9.50;99.90;;;;;;5098862;28;20043;-71
2022/09/17 02:25:05;;;;;;;10.52;1.58;;;9.50;99.90;;;;;;5105950;28;20305;-71
2022/09/17 02:27:50;;;;;;;11.73;1.70;;;9.50;99.90;;;;;;5106007;28;20043;-71
2022/09/17 02:30:16;;;;;;;12.23;1.92;;;9.90;99.90;;;;;;5099318;28;20040;-72
2022/09/17 02:32:42;;;;;;;11.00;1.65;;;10.30;99.90;;;;;;5100352;28;20113;-71
2022/09/17 02:35:10;;;;;;;6.88;1.33;;;10.40;99.90;;;;;;5085165;28;20506;-71
2022/09/17 02:37:35;;;;;;;3.90;0.80;;;10.40;99.90;;;;;;5107707;28;20039;-71
2022/09/17 02:40:02;;;;;;;7.53;1.25;;;10.40;99.90;;;;;;5101746;28;20043;-71
2022/09/17 02:42:50;;;;;;;5.82;1.20;;;10.30;99.90;;;;;;5105576;28;20067;-71
2022/09/17 02:45:26;;;;;;;11.52;2.10;;;10.20;99.90;;;;;;5100470;28;20404;-71
2022/09/17 02:48:20;;;;;;;6.90;1.40;;;10.20;99.90;;;;;;5091624;28;20040;-71
2022/09/17 02:51:04;;;;;;;10.18;1.42;;;10.20;99.90;;;;;;5108745;28;20070;-72
2022/09/17 02:53:46;;;;;;;8.82;1.20;;;10.10;99.90;;;;;;5103183;28;20036;-71
2022/09/17 02:56:39;;;;;;;8.05;1.15;;;10.10;99.90;;;;;;5106938;28;20041;-71
2022/09/17 02:59:18;;;;;;;7.78;1.45;;;10.00;99.90;;;;;;5104081;28;20110;-71
2022/09/17 03:01:50;;;;;;;6.78;1.10;;;9.90;99.90;;;;;;5100599;28;20040;-71
2022/09/17 03:04:19;;;;;;;5.10;1.10;;;9.90;99.90;;;;;;5108065;28;20504;-71
2022/09/17 03:06:46;;;;;;;5.72;1.40;;;9.90;99.90;;;;;;5103462;28;20031;-71
2022/09/17 03:09:12;;;;;;;8.77;1.80;;;9.90;99.90;;;;;;5110739;28;20075;-71
2022/09/17 03:11:38;;;;;;;10.18;1.27;;;9.80;99.90;;;;;;5108702;28;20044;-71
2022/09/17 03:14:04;;;;;;;9.63;1.70;;;9.90;99.90;;;;;;5112171;28;20067;-71
2022/09/17 03:16:30;;;;;;;12.32;1.58;;;9.80;99.90;;;;;;5091633;28;20071;-71
2022/09/17 03:18:55;;;;;;;9.32;1.50;;;9.80;99.90;;;;;;5094435;28;20058;-72
2022/09/17 03:21:21;;;;;;;6.90;1.33;;;9.70;99.90;;;;;;5094113;28;20043;-71
2022/09/17 03:23:46;;;;;;;9.43;1.48;;;9.70;99.90;;;;;;5104521;28;20400;-71
2022/09/17 03:26:12;;;;;;;9.95;1.67;;;9.60;99.90;;;;;;5111659;28;20035;-71
2022/09/17 03:28:37;;;;;;;9.30;1.83;;;9.60;99.90;;;;;;5109883;28;20046;-71
2022/09/17 03:31:04;;;;;;;9.68;1.58;;;9.80;99.90;;;;;;5104056;28;20036;-71
2022/09/17 03:33:30;;;;;;;10.85;1.23;;;10.00;99.90;;;;;;5086465;28;20113;-71
2022/09/17 03:35:56;;;;;;;9.68;1.27;;;10.10;99.90;;;;;;5106632;28;20062;-71
2022/09/17 03:38:22;;;;;;;8.68;1.52;;;10.10;99.90;;;;;;5105003;28;20036;-72
2022/09/17 03:40:58;;;;;;;6.95;1.27;;;10.10;99.90;;;;;;5102549;28;20040;-72
2022/09/17 03:43:24;;;;;;;6.97;1.40;;;10.10;99.90;;;;;;5111670;28;20035;-72
2022/09/17 03:45:49;;;;;;;8.13;1.52;;;10.00;99.90;;;;;;5102988;28;20500;-72
2022/09/17 03:48:15;;;;;;;6.20;1.35;;;9.90;99.90;;;;;;5107587;28;20039;-71
2022/09/17 03:50:42;;;;;;;9.88;1.33;;;9.90;99.90;;;;;;5111395;28;20517;-72
2022/09/17 03:53:07;;;;;;;9.48;1.67;;;9.80;99.90;;;;;;5106072;28;20039;-72
2022/09/17 03:55:33;;;;;;;6.03;1.30;;;9.80;99.90;;;;;;5103682;28;20512;-72
2022/09/17 03:57:58;;;;;;;12.50;1.60;;;9.70;99.90;;;;;;5101285;28;20039;-71
2022/09/17 04:00:24;;;;;;;9.25;1.55;;;9.70;99.90;;;;;;5105342;28;20036;-71
2022/09/17 04:02:49;;;;;;;9.35;1.30;;;9.70;99.90;;;;;;5104118;28;20049;-71
2022/09/17 04:05:15;;;;;;;9.93;1.55;;;9.60;99.90;;;;;;5102119;28;20039;-71
2022/09/17 04:07:41;;;;;;;11.05;1.60;;;9.60;99.90;;;;;;5109045;28;20027;-71
2022/09/17 04:10:07;;;;;;;13.77;1.90;;;9.50;99.90;;;;;;5101316;28;20097;-71
2022/09/17 04:12:33;;;;;;;8.07;1.60;;;9.50;99.90;;;;;;5090225;28;20044;-71
2022/09/17 04:14:58;;;;;;;8.63;1.48;;;9.50;99.90;;;;;;5101867;28;20471;-71
2022/09/17 04:17:24;;;;;;;12.27;2.45;;;9.40;99.90;;;;;;5106555;28;20035;-71
2022/09/17 04:19:49;;;;;;;7.05;1.48;;;9.40;99.90;;;;;;5088263;28;20085;-71
2022/09/17 04:22:15;;;;;;;9.27;1.42;;;9.40;99.90;;;;;;5112269;27;20183;-71
2022/09/17 04:24:40;;;;;;;10.00;2.00;;;9.30;99.90;;;;;;5105821;28;20123;-71
2022/09/17 04:27:06;;;;;;;11.07;1.50;;;9.30;99.90;;;;;;5100634;28;20399;-71
2022/09/17 04:29:31;;;;;;;10.50;1.77;;;9.30;99.90;;;;;;5108240;28;20043;-72
2022/09/17 04:31:57;;;;;;;10.68;2.10;;;9.30;99.90;;;;;;5108176;28;20035;-72
2022/09/17 04:34:22;;;;;;;10.32;2.33;;;9.40;99.90;;;;;;5094822;28;20062;-72
2022/09/17 04:36:48;;;;;;;8.32;1.38;;;9.40;99.90;;;;;;5098861;28;20100;-72
2022/09/17 04:39:13;;;;;;;11.35;1.65;;;9.40;99.90;;;;;;5104013;28;20051;-72
2022/09/17 04:41:39;;;;;;;11.68;1.73;;;9.40;99.90;;;;;;5101940;28;20047;-72
2022/09/17 04:44:05;;;;;;;11.27;1.73;;;9.40;99.90;;;;;;5103472;28;20755;-72
2022/09/17 04:46:31;;;;;;;13.68;1.90;;;9.40;99.90;;;;;;5106738;28;20039;-71
2022/09/17 04:48:56;;;;;;;10.68;1.45;;;9.30;99.90;;;;;;5084225;28;20075;-72
2022/09/17 04:51:22;;;;;;;10.38;1.90;;;9.30;99.90;;;;;;5083299;28;20078;-72
2022/09/17 04:53:47;;;;;;;10.50;1.88;;;9.20;99.90;;;;;;5088695;28;20047;-71
2022/09/17 04:56:13;;;;;;;14.80;1.90;;;9.20;99.90;;;;;;5099195;28;20051;-71
2022/09/17 04:58:38;;;;;;;9.50;1.50;;;9.20;99.90;;;;;;5109159;28;20176;-71
2022/09/17 05:01:04;;;;;;;10.70;2.00;;;9.10;99.90;;;;;;5091803;28;20031;-71
2022/09/17 05:03:30;;;;;;;9.02;1.60;;;9.10;99.90;;;;;;5101987;28;20040;-71
2022/09/17 05:05:55;;;;;;;9.30;1.90;;;9.10;99.90;;;;;;5104689;28;20050;-71
2022/09/17 05:08:22;;;;;;;10.23;1.95;;;9.10;99.90;;;;;;5107670;28;20039;-71
2022/09/17 05:10:50;;;;;;;10.48;1.67;;;9.10;99.90;;;;;;5107880;28;20036;-72
2022/09/17 05:13:16;;;;;;;12.25;2.03;;;9.10;99.90;;;;;;5086667;28;20571;-71
2022/09/17 05:15:41;;;;;;;9.88;1.77;;;9.10;99.90;;;;;;5107647;28;20040;-71
2022/09/17 05:18:07;;;;;;;11.13;1.77;;;9.20;99.90;;;;;;5106540;28;20043;-71
2022/09/17 05:20:32;;;;;;;16.08;2.10;;;9.20;99.90;;;;;;5082574;28;20071;-71
2022/09/17 05:22:58;;;;;;;8.43;1.52;;;9.30;99.90;;;;;;5105055;28;20451;-72
2022/09/17 05:25:24;;;;;;;14.32;1.80;;;9.40;99.90;;;;;;5089061;28;20035;-71
2022/09/17 05:27:51;;;;;;;15.38;2.58;;;9.50;99.90;;;;;;5077766;28;20148;-72
2022/09/17 05:30:17;;;;;;;12.95;1.77;;;9.70;99.90;;;;;;5109693;28;20046;-71
2022/09/17 05:32:42;;;;;;;11.10;2.08;;;9.80;99.90;;;;;;5085022;28;20032;-71
2022/09/17 05:35:09;;;;;;;12.85;2.10;;;10.00;99.90;;;;;;5104289;28;20089;-72
2022/09/17 05:37:35;;;;;;;9.48;1.48;;;10.20;99.90;;;;;;5102434;28;20036;-72
2022/09/17 05:40:04;;;;;;;10.15;1.80;;;10.30;99.90;;;;;;5101752;28;20110;-72
2022/09/17 05:42:29;;;;;;;8.50;1.65;;;10.40;99.90;;;;;;5086424;28;20031;-73
2022/09/17 05:44:55;;;;;;;6.15;1.25;;;10.30;99.90;;;;;;5102870;28;20046;-72
2022/09/17 05:47:20;;;;;;;8.05;1.33;;;10.30;99.90;;;;;;5098109;28;20035;-73
2022/09/17 05:49:46;;;;;;;6.85;1.10;;;10.20;99.90;;;;;;5099402;28;20034;-72
2022/09/17 05:52:11;;;;;;;6.32;1.58;;;10.20;99.90;;;;;;5100752;28;20507;-73
2022/09/17 05:54:37;;;;;;;5.28;1.20;;;10.10;99.90;;;;;;5105268;28;20036;-72
2022/09/17 05:57:03;;;;;;;7.63;1.00;;;10.00;99.90;;;;;;5110693;28;20028;-72
2022/09/17 05:59:28;;;;;;;4.65;0.77;;;10.00;99.90;;;;;;5078528;28;20040;-72
2022/09/17 06:01:54;;;;;;;6.65;1.25;;;10.00;99.90;;;;;;5107835;28;20493;-72
2022/09/17 06:04:19;;;;;;;7.32;1.08;;;10.00;99.90;;;;;;5107303;28;20035;-74
2022/09/17 06:06:45;;;;;;;4.63;0.80;;;9.90;99.90;;;;;;5086580;28;20070;-75
2022/09/17 06:09:11;;;;;;;6.10;1.17;;;9.90;99.90;;;;;;5086519;28;20035;-74
2022/09/17 06:11:37;;;;;;;8.05;1.00;;;9.80;99.90;;;;;;5093894;28;20050;-72
2022/09/17 06:14:03;;;;;;;5.22;0.85;;;9.80;99.90;;;;;;5089271;28;20036;-73
2022/09/17 06:16:28;;;;;;;3.78;0.90;;;9.80;99.90;;;;;;5094229;28;20088;-73
2022/09/17 06:18:54;;;;;;;5.10;1.52;;;9.80;99.90;;;;;;5100191;28;20032;-74
2022/09/17 06:21:21;;;;;;;8.32;1.20;;;9.90;99.90;;;;;;5109266;28;20024;-74
2022/09/17 06:23:47;;;;;;;5.90;1.17;;;9.80;99.90;;;;;;5090419;28;20036;-74
2022/09/17 06:26:13;;;;;;;9.77;1.02;;;9.60;99.90;;;;;;5091686;28;20047;-73
2022/09/17 06:28:39;;;;;;;6.72;1.52;;;9.50;99.90;;;;;;5081136;28;20103;-73
2022/09/17 06:31:06;;;;;;;8.73;1.17;;;9.50;99.90;;;;;;5097216;28;20044;-73
2022/09/17 06:33:33;;;;;;;5.85;1.05;;;9.50;99.90;;;;;;5077775;28;20040;-74
2022/09/17 06:36:01;;;;;;;5.18;0.95;;;9.40;99.90;;;;;;5094365;28;20405;-72
2022/09/17 06:38:28;;;;;;;6.45;1.10;;;9.50;99.90;;;;;;5094356;28;20089;-73
2022/09/17 06:40:53;;;;;;;4.70;1.00;;;9.50;99.90;;;;;;5093148;28;20434;-73
2022/09/17 06:43:20;;;;;;;6.80;1.10;;;9.70;99.90;;;;;;5094816;28;20120;-73
2022/09/17 06:45:57;;;;;;;4.18;0.90;;;9.80;99.90;;;;;;5099584;28;20397;-73
2022/09/17 06:48:23;;;;;;;4.57;1.13;;;9.90;99.90;;;;;;5100881;28;20035;-74
2022/09/17 06:50:49;;;;;;;9.25;1.42;;;10.00;99.90;;;;;;5098862;28;20039;-74
2022/09/17 06:53:15;;;;;;;11.25;1.92;;;10.00;99.90;;;;;;5096938;28;20044;-73
2022/09/17 06:55:41;;;;;;;7.72;1.08;;;10.10;99.90;;;;;;5095009;28;20111;-73
2022/09/17 06:58:06;;;;;;;12.15;1.33;;;10.10;99.90;;;;;;5092586;28;20040;-72
2022/09/17 07:00:32;;;;;;;8.50;1.20;;;10.00;99.90;;;;;;5099710;28;20063;-73
2022/09/17 07:02:59;;;;;;;7.32;1.40;;;10.10;99.90;;;;;;5100682;28;20074;-72
2022/09/17 07:05:27;;;;;;;6.30;1.25;;;10.30;99.90;;;;;;5099111;28;20044;-73
2022/09/17 07:07:53;;;;;;;6.53;1.05;;;10.50;99.90;;;;;;5091165;28;20048;-73
2022/09/17 07:10:20;;;;;;;11.65;1.38;;;10.90;99.90;;;;;;5110932;28;20044;-73
2022/09/17 07:12:45;;;;;;;10.40;1.35;;;11.10;99.90;;;;;;5103609;28;20036;-72
2022/09/17 07:15:11;;;;;;;11.77;1.50;;;11.30;99.90;;;;;;5081961;28;20039;-72
2022/09/17 07:17:40;;;;;;;9.63;1.60;;;11.40;99.90;;;;;;5109544;28;20080;-72
2022/09/17 07:20:07;;;;;;;11.32;1.90;;;11.40;99.90;;;;;;5113112;28;20049;-73
2022/09/17 07:22:33;;;;;;;11.50;1.65;;;11.40;99.90;;;;;;5113067;28;20228;-73
2022/09/17 07:24:58;;;;;;;9.05;1.38;;;11.30;99.90;;;;;;5094600;28;20166;-73
2022/09/17 07:27:26;;;;;;;8.93;1.70;;;11.40;99.90;;;;;;5094306;28;20036;-73
2022/09/17 07:29:52;;;;;;;7.38;1.25;;;11.50;99.90;;;;;;5103239;28;20042;-73
2022/09/17 07:32:17;;;;;;;9.73;1.27;;;11.50;99.90;;;;;;5105583;28;20031;-73
2022/09/17 07:34:43;;;;;;;10.02;1.60;;;11.60;99.90;;;;;;5098948;28;20055;-73
2022/09/17 07:37:08;;;;;;;7.90;1.38;;;11.60;99.90;;;;;;5107741;28;20031;-72
2022/09/17 07:39:34;;;;;;;7.78;1.40;;;11.70;99.90;;;;;;5077520;28;20079;-73
2022/09/17 07:41:59;;;;;;;11.07;1.65;;;11.70;99.90;;;;;;5074843;28;20107;-74
2022/09/17 07:44:25;;;;;;;9.73;1.40;;;11.70;99.90;;;;;;5092086;28;20044;-75
2022/09/17 07:46:51;;;;;;;8.35;1.63;;;11.80;99.90;;;;;;5090985;28;20046;-75
2022/09/17 07:49:16;;;;;;;10.70;1.35;;;12.00;99.90;;;;;;5074749;28;20497;-74
2022/09/17 07:51:42;;;;;;;10.82;1.20;;;12.20;99.90;;;;;;5093193;28;20044;-75
2022/09/17 07:54:07;;;;;;;12.23;1.75;;;12.40;99.90;;;;;;5099400;28;20071;-74
2022/09/17 07:56:33;;;;;;;11.90;1.38;;;12.60;99.90;;;;;;5075407;28;20080;-73
2022/09/17 07:59:00;;;;;;;12.55;1.38;;;12.90;99.90;;;;;;5098615;28;20489;-74
2022/09/17 08:01:26;;;;;;;7.70;1.20;;;13.20;99.90;;;;;;5108952;28;20116;-73
2022/09/17 08:03:53;;;;;;;8.35;1.30;;;13.30;99.90;;;;;;5088106;28;20039;-74
2022/09/17 08:06:22;;;;;;;6.78;1.80;;;13.10;99.90;;;;;;5102672;28;20036;-74
2022/09/17 08:08:48;;;;;;;10.93;1.90;;;13.00;99.90;;;;;;5107282;28;20043;-74
2022/09/17 08:11:16;;;;;;;7.20;1.13;;;12.40;99.90;;;;;;5112177;28;20043;-73
2022/09/17 08:13:43;;;;;;;6.78;1.35;;;11.70;99.90;;;;;;5110988;28;20084;-72
2022/09/17 08:16:14;;;;;;;7.07;1.70;;;11.20;99.90;;;;;;5078655;28;20518;-73
2022/09/17 08:18:40;;;;;;;6.75;1.30;;;10.80;99.90;;;;;;5111340;28;20096;-74
2022/09/17 08:21:08;;;;;;;6.43;1.40;;;10.70;99.90;;;;;;5098949;28;20040;-74
2022/09/17 08:23:35;;;;;;;8.10;1.20;;;10.60;99.90;;;;;;5090005;28;20050;-74
2022/09/17 08:26:02;;;;;;;9.98;1.27;;;10.50;99.90;;;;;;5094006;28;20039;-73
2022/09/17 08:28:29;;;;;;;8.25;1.50;;;10.50;99.90;;;;;;5097658;28;20400;-73
2022/09/17 08:31:17;;;;;;;8.25;1.20;;;10.60;99.90;;;;;;5091077;28;20040;-74
2022/09/17 08:33:44;;;;;;;4.85;1.10;;;10.80;99.90;;;;;;5090857;28;20044;-73
2022/09/17 08:36:11;;;;;;;7.55;1.00;;;11.10;99.90;;;;;;5101598;28;20036;-74
2022/09/17 08:38:38;;;;;;;6.45;1.42;;;11.30;99.90;;;;;;5111659;28;20040;-74
2022/09/17 08:41:32;;;;;;;9.40;1.27;;;11.30;99.90;;;;;;5111942;28;20439;-73
2022/09/17 08:44:13;;;;;;;7.45;1.23;;;11.50;99.90;;;;;;5105633;28;20043;-73
2022/09/17 08:46:50;;;;;;;8.18;1.45;;;11.80;99.90;;;;;;5110414;28;20074;-74
2022/09/17 08:49:38;;;;;;;6.18;1.25;;;12.10;99.90;;;;;;5110157;28;20039;-73
2022/09/17 08:52:41;;;;;;;9.25;2.10;;;12.20;99.90;;;;;;5105289;28;20031;-73
2022/09/17 08:55:35;;;;;;;9.88;1.52;;;12.20;99.90;;;;;;5104548;28;20565;-74
2022/09/17 08:58:21;;;;;;;4.57;1.70;;;12.00;99.90;;;;;;5100583;28;20116;-74
2022/09/17 09:01:16;;;;;;;6.18;1.00;;;11.70;99.90;;;;;;5077814;28;20079;-73
2022/09/17 09:04:08;;;;;;;4.00;1.10;;;11.40;99.90;;;;;;5105576;28;20035;-73
2022/09/17 09:06:45;;;;;;;5.78;1.10;;;11.30;99.90;;;;;;5079931;28;20089;-73
2022/09/17 09:09:15;;;;;;;4.82;0.80;;;11.20;99.90;;;;;;5079309;28;20043;-74
2022/09/17 09:11:42;;;;;;;5.22;1.27;;;11.20;99.90;;;;;;5087519;28;20028;-74
2022/09/17 09:14:22;;;;;;;6.47;1.17;;;11.30;99.90;;;;;;5101695;28;20058;-74
2022/09/17 09:16:51;;;;;;;5.65;1.80;;;11.30;99.90;;;;;;5110592;28;20035;-76
2022/09/17 09:19:30;;;;;;;4.25;0.73;;;11.30;99.90;;;;;;5104715;28;20036;-75
2022/09/17 09:22:28;;;;;;;7.00;1.75;;;11.30;99.90;;;;;;5110273;28;20039;-76
2022/09/17 09:25:20;;;;;;;7.53;1.30;;;11.30;99.90;;;;;;5102292;28;20058;-75
2022/09/17 09:28:23;;;;;;;8.15;1.48;;;11.30;99.90;;;;;;5104701;28;20042;-75
2022/09/17 09:31:06;;;;;;;9.07;1.35;;;11.40;99.90;;;;;;5092938;28;20036;-75
2022/09/17 09:33:38;;;;;;;9.57;1.30;;;11.70;99.90;;;;;;5095740;28;20036;-75
2022/09/17 09:36:11;;;;;;;7.15;1.30;;;12.00;99.90;;;;;;5104588;28;20047;-77
2022/09/17 09:38:47;;;;;;;7.40;1.13;;;12.00;99.90;;;;;;5109089;28;20392;-77
2022/09/17 09:41:28;;;;;;;9.15;1.40;;;11.70;99.90;;;;;;5107053;28;20078;-76
2022/09/17 09:44:08;;;;;;;9.77;1.75;;;11.50;99.90;;;;;;5073037;28;20058;-76
2022/09/17 09:47:06;;;;;;;9.32;1.77;;;11.40;99.90;;;;;;5090130;28;20117;-76
2022/09/17 09:49:32;;;;;;;9.15;1.33;;;11.50;99.90;;;;;;5073479;28;20434;-76
2022/09/17 09:52:15;;;;;;;7.25;1.30;;;11.70;99.90;;;;;;5104074;28;20036;-75
2022/09/17 09:55:11;;;;;;;5.75;1.13;;;11.80;99.90;;;;;;5096581;28;20043;-74
2022/09/17 09:57:44;;;;;;;5.68;0.90;;;12.00;99.90;;;;;;5089743;28;20553;-74
2022/09/17 10:00:25;;;;;;;11.02;1.50;;;12.30;99.90;;;;;;5091596;28;20489;-74
2022/09/17 10:03:05;;;;;;;8.18;1.27;;;12.60;99.90;;;;;;5070705;28;20560;-74
2022/09/17 10:05:30;;;;;;;9.57;1.60;;;12.80;99.90;;;;;;5088822;28;20484;-75
2022/09/17 10:07:56;;;;;;;6.85;1.55;;;12.90;99.90;;;;;;5089457;28;20036;-74
2022/09/17 10:10:22;;;;;;;10.40;1.48;;;12.90;99.90;;;;;;5092761;28;20411;-75
2022/09/17 10:12:47;;;;;;;8.45;1.65;;;13.00;99.90;;;;;;5074812;28;20381;-75
2022/09/17 10:15:27;;;;;;;8.40;1.83;;;13.10;99.90;;;;;;5088734;28;20047;-75
2022/09/17 10:18:15;;;;;;;10.75;1.98;;;13.30;99.90;;;;;;5089171;28;20055;-75
2022/09/17 10:20:59;;;;;;;12.32;1.88;;;13.50;99.90;;;;;;5088710;28;20028;-76
2022/09/17 10:23:32;;;;;;;12.40;1.42;;;13.80;99.90;;;;;;5090903;28;20083;-75
2022/09/17 10:25:58;;;;;;;10.73;1.88;;;14.10;99.90;;;;;;5107318;28;20322;-77
2022/09/17 10:28:47;;;;;;;10.27;1.60;;;14.20;99.90;;;;;;5094981;28;20039;-75
2022/09/17 10:31:13;;;;;;;12.70;1.70;;;14.10;99.90;;;;;;5091593;28;20044;-74
2022/09/17 10:34:01;;;;;;;7.55;1.65;;;13.50;99.90;;;;;;5092040;28;20032;-74
2022/09/17 10:36:42;;;;;;;13.20;2.05;;;13.30;99.90;;;;;;5080395;28;20040;-74
2022/09/17 10:39:31;;;;;;;9.75;1.85;;;13.10;99.90;;;;;;5103007;28;20393;-75
2022/09/17 10:42:02;;;;;;;5.13;1.10;;;12.90;99.90;;;;;;5109198;28;20027;-74
2022/09/17 10:44:35;;;;;;;5.88;0.82;;;12.30;99.90;;;;;;5106116;28;20128;-74
2022/09/17 10:47:21;;;;;;;9.73;1.65;;;12.00;99.90;;;;;;5099826;28;20051;-73
2022/09/17 10:50:00;;;;;;;7.25;1.50;;;11.80;99.90;;;;;;5103212;28;20035;-73
2022/09/17 10:52:35;;;;;;;9.63;1.75;;;11.70;99.90;;;;;;5113325;28;20039;-74
2022/09/17 10:55:30;;;;;;;7.88;2.25;;;11.70;99.90;;;;;;5096460;28;20047;-75
2022/09/17 10:58:07;;;;;;;9.45;2.15;;;11.70;99.90;;;;;;5081704;28;20408;-74
2022/09/17 11:00:54;;;;;;;11.32;1.80;;;11.90;99.90;;;;;;5075303;28;20116;-75
2022/09/17 11:03:34;;;;;;;12.88;1.85;;;12.20;99.90;;;;;;5096545;28;20105;-74
2022/09/17 11:06:25;;;;;;;12.57;1.80;;;12.60;99.90;;;;;;5085227;28;20412;-75
2022/09/17 11:09:00;;;;;;;8.55;1.40;;;13.00;99.90;;;;;;5075172;28;20036;-75
2022/09/17 11:11:48;;;;;;;9.48;1.35;;;13.20;99.90;;;;;;5088574;28;20055;-75
2022/09/17 11:14:34;;;;;;;9.02;1.30;;;13.50;99.90;;;;;;5075350;28;20576;-75
2022/09/17 11:17:23;;;;;;;11.13;1.45;;;13.70;99.90;;;;;;5108274;28;20082;-74
2022/09/17 11:20:02;;;;;;;6.57;1.63;;;13.90;99.90;;;;;;5103093;28;20046;-75
2022/09/17 11:22:50;;;;;;;9.70;1.70;;;13.90;99.90;;;;;;5098478;28;20172;-75
2022/09/17 11:25:41;;;;;;;10.32;1.70;;;13.80;99.90;;;;;;5112808;28;20039;-75
2022/09/17 11:28:46;;;;;;;9.45;1.75;;;13.60;99.90;;;;;;5106484;28;20036;-74
2022/09/17 11:31:56;;;;;;;9.38;1.95;;;13.50;99.90;;;;;;5097176;28;20059;-74
2022/09/17 11:34:36;;;;;;;10.48;1.70;;;13.50;99.90;;;;;;5058911;28;20055;-74
2022/09/17 11:37:11;;;;;;;11.48;1.60;;;13.40;99.90;;;;;;5094373;28;20044;-76
2022/09/17 11:39:56;;;;;;;13.07;2.03;;;13.80;99.90;;;;;;5079707;28;20432;-75
2022/09/17 11:42:27;;;;;;;9.07;1.90;;;14.00;99.90;;;;;;5105317;28;20077;-75
2022/09/17 11:45:05;;;;;;;10.45;2.17;;;14.00;99.90;;;;;;5115580;27;20067;-75
2022/09/17 11:47:39;;;;;;;11.27;2.35;;;14.00;99.90;;;;;;5104999;28;20439;-75
2022/09/17 11:50:30;;;;;;;15.85;2.42;;;14.20;99.90;;;;;;5076995;28;20039;-76
2022/09/17 11:53:14;;;;;;;8.10;1.83;;;14.50;99.90;;;;;;5095215;28;20031;-75
2022/09/17 11:55:51;;;;;;;11.95;2.35;;;14.90;99.90;;;;;;5093549;28;20058;-75
2022/09/17 11:58:33;;;;;;;10.20;2.00;;;15.00;99.90;;;;;;5111491;28;20116;-75
2022/09/17 12:01:05;;;;;;;9.80;1.80;;;14.90;99.90;;;;;;5086247;28;20036;-74
2022/09/17 12:03:42;;;;;;;8.75;1.50;;;14.70;99.90;;;;;;5107996;28;20043;-73
2022/09/17 12:06:13;;;;;;;10.50;1.95;;;14.90;99.90;;;;;;5087384;28;20393;-74
2022/09/17 12:09:06;;;;;;;12.52;1.90;;;15.20;99.90;;;;;;5091766;28;20180;-75
2022/09/17 12:11:48;;;;;;;10.93;1.92;;;15.40;99.90;;;;;;5087279;28;20079;-75
2022/09/17 12:14:21;;;;;;;11.82;1.88;;;15.50;99.90;;;;;;5104003;28;20036;-74
2022/09/17 12:16:51;;;;;;;9.63;1.77;;;15.70;99.90;;;;;;5106739;28;20032;-73
2022/09/17 12:19:34;;;;;;;10.93;1.83;;;15.90;99.90;;;;;;5112030;28;20123;-74
2022/09/17 12:22:07;;;;;;;10.65;1.98;;;16.00;99.90;;;;;;5094797;28;20155;-74
2022/09/17 12:24:32;;;;;;;10.02;2.08;;;16.20;99.90;;;;;;5094732;28;20537;-74
2022/09/17 12:27:05;;;;;;;9.10;1.52;;;16.40;99.90;;;;;;5108443;28;20043;-75
2022/09/17 12:30:03;;;;;;;9.93;1.63;;;16.40;99.90;;;;;;5108139;28;20093;-74
2022/09/17 12:32:50;;;;;;;8.00;1.50;;;16.70;99.90;;;;;;5098331;28;20044;-75
2022/09/17 12:35:26;;;;;;;7.18;1.42;;;16.90;99.90;;;;;;5096408;28;20519;-74
2022/09/17 12:38:22;;;;;;;5.35;0.93;;;17.10;99.90;;;;;;5090141;28;20059;-76
2022/09/17 12:40:57;;;;;;;8.32;1.75;;;17.00;99.90;;;;;;5092796;28;20122;-75
2022/09/17 12:43:48;;;;;;;6.20;1.50;;;17.00;99.90;;;;;;5101912;28;20040;-75
2022/09/17 12:46:59;;;;;;;6.55;1.08;;;16.90;99.90;;;;;;5108259;28;20036;-75
2022/09/17 12:49:33;;;;;;;9.02;1.30;;;17.00;99.90;;;;;;5106464;28;20572;-75
2022/09/17 12:52:24;;;;;;;7.88;1.50;;;17.10;99.90;;;;;;5079580;28;20073;-75
2022/09/17 12:55:12;;;;;;;12.10;2.00;;;17.60;99.90;;;;;;5095762;28;20040;-76
2022/09/17 12:57:48;;;;;;;14.35;2.35;;;17.10;99.90;;;;;;5079315;28;20042;-75
2022/09/17 13:00:15;;;;;;;11.40;1.90;;;16.70;99.90;;;;;;5096302;28;20359;-76
2022/09/17 13:02:54;;;;;;;10.45;2.00;;;16.70;99.90;;;;;;5093652;28;20109;-75
2022/09/17 13:05:44;;;;;;;16.58;2.00;;;16.80;99.90;;;;;;5089964;28;20036;-74
2022/09/17 13:08:43;;;;;;;9.45;1.95;;;16.90;99.90;;;;;;5095315;28;20043;-75
2022/09/17 13:11:33;;;;;;;12.95;2.35;;;17.00;99.90;;;;;;5085579;28;20397;-76
2022/09/17 13:14:16;;;;;;;9.27;2.00;;;17.20;99.90;;;;;;5073863;28;20051;-75
2022/09/17 13:16:51;;;;;;;12.75;1.95;;;17.40;99.90;;;;;;5074074;28;20048;-76